createdAt,value
2023-02-23T00:00:29.412Z,42.97
2023-02-23T00:03:01.314Z,43.10
2023-02-23T00:05:29.862Z,44.73
2023-02-23T00:07:59.318Z,44.13
2023-02-23T00:10:30.635Z,44.23
2023-02-23T00:12:59.611Z,42.80
2023-02-23T00:15:28.505Z,41.70
2023-02-23T00:17:56.803Z,41.70
2023-02-23T00:20:29.236Z,40.30
2023-02-23T00:22:59.569Z,40.03
2023-02-23T00:25:31.170Z,36.03
2023-02-23T00:27:59.401Z,37.70
2023-02-23T00:30:27.633Z,37.60
2023-02-23T00:32:55.468Z,36.57
2023-02-23T00:35:25.018Z,32.63
2023-02-23T00:37:54.147Z,33.60
2023-02-23T00:40:23.848Z,32.50
2023-02-23T00:42:52.476Z,32.97
2023-02-23T00:45:20.649Z,33.37
2023-02-23T00:47:49.188Z,30.57
2023-02-23T00:50:18.586Z,31.00
2023-02-23T00:52:49.398Z,30.93
2023-02-23T00:55:21.587Z,33.37
2023-02-23T00:57:49.386Z,32.57
2023-02-23T01:00:20.396Z,32.97
2023-02-23T01:02:48.377Z,32.00
2023-02-23T01:05:16.770Z,33.90
2023-02-23T01:07:46.924Z,32.47
2023-02-23T01:10:20.373Z,31.80
2023-02-23T01:12:50.851Z,32.23
2023-02-23T01:15:19.474Z,32.33
2023-02-23T01:17:47.242Z,32.57
2023-02-23T01:20:18.692Z,30.60
2023-02-23T01:22:46.965Z,32.43
2023-02-23T01:25:14.970Z,30.30
2023-02-23T01:27:45.450Z,30.43
2023-02-23T01:30:16.039Z,30.80
2023-02-23T01:32:43.832Z,29.87
2023-02-23T01:35:14.020Z,27.63
2023-02-23T01:37:43.030Z,28.77
2023-02-23T01:40:18.273Z,30.90
2023-02-23T01:42:47.073Z,28.50
2023-02-23T01:45:27.384Z,30.90
2023-02-23T01:47:57.138Z,29.60
2023-02-23T01:50:26.375Z,28.77
2023-02-23T01:52:54.246Z,30.63
2023-02-23T01:55:24.474Z,30.17
2023-02-23T01:57:59.655Z,30.00
2023-02-23T02:00:31.472Z,28.13
2023-02-23T02:03:00.239Z,28.60
2023-02-23T02:05:33.365Z,28.97
2023-02-23T02:08:01.231Z,28.57
2023-02-23T02:10:46.527Z,30.70
2023-02-23T02:13:18.382Z,29.77
2023-02-23T02:16:06.445Z,32.00
2023-02-23T02:18:42.038Z,32.20
2023-02-23T02:21:16.998Z,30.83
2023-02-23T02:24:02.742Z,28.93
2023-02-23T02:26:35.593Z,27.93
2023-02-23T02:29:26.498Z,28.00
2023-02-23T02:32:03.315Z,29.27
2023-02-23T02:34:50.510Z,28.80
2023-02-23T02:37:30.541Z,27.67
2023-02-23T02:40:15.759Z,28.93
2023-02-23T02:42:52.734Z,28.73
2023-02-23T02:45:24.092Z,27.50
2023-02-23T02:47:56.096Z,29.00
2023-02-23T02:50:32.059Z,27.23
2023-02-23T02:53:05.561Z,27.23
2023-02-23T02:55:37.437Z,26.33
2023-02-23T02:58:08.011Z,23.73
2023-02-23T03:00:55.098Z,26.40
2023-02-23T03:03:47.596Z,28.10
2023-02-23T03:06:33.520Z,25.00
2023-02-23T03:09:24.300Z,29.70
2023-02-23T03:12:12.383Z,25.83
2023-02-23T03:15:02.263Z,27.13
2023-02-23T03:17:52.057Z,27.10
2023-02-23T03:20:42.032Z,29.20
2023-02-23T03:23:31.265Z,29.70
2023-02-23T03:26:19.953Z,26.30
2023-02-23T03:29:10.112Z,26.63
2023-02-23T03:31:57.475Z,24.30
2023-02-23T03:34:46.942Z,24.00
2023-02-23T03:37:36.263Z,22.53
2023-02-23T03:40:25.022Z,26.60
2023-02-23T03:43:12.968Z,22.87
2023-02-23T03:45:58.673Z,23.63
2023-02-23T03:48:44.624Z,23.30
2023-02-23T03:51:31.795Z,26.07
2023-02-23T03:54:20.604Z,24.93
2023-02-23T03:57:09.452Z,16.33
2023-02-23T03:59:59.100Z,14.00
2023-02-23T04:02:44.875Z,16.00
2023-02-23T04:05:35.585Z,19.63
2023-02-23T04:08:21.985Z,20.00
2023-02-23T04:11:09.256Z,18.80
2023-02-23T04:13:37.681Z,13.83
2023-02-23T04:16:09.211Z,15.43
2023-02-23T04:18:41.401Z,13.23
2023-02-23T04:21:09.256Z,13.70
2023-02-23T04:23:37.681Z,13.03
2023-02-23T04:26:06.546Z,12.83
2023-02-23T04:28:34.325Z,17.50
2023-02-23T04:31:06.634Z,21.20
2023-02-23T04:33:34.539Z,27.73
2023-02-23T04:36:02.258Z,27.13
2023-02-23T04:38:30.306Z,27.13
2023-02-23T04:41:00.224Z,25.00
2023-02-23T04:43:28.024Z,24.83
2023-02-23T04:45:55.738Z,24.60
2023-02-23T04:48:27.583Z,26.80
2023-02-23T04:50:58.271Z,30.10
2023-02-23T04:53:27.325Z,28.33
2023-02-23T04:55:55.140Z,26.40
2023-02-23T04:58:22.887Z,27.00
2023-02-23T05:00:50.858Z,25.83
2023-02-23T05:03:18.669Z,25.63
2023-02-23T05:05:50.300Z,29.17
2023-02-23T05:08:18.348Z,25.63
2023-02-23T05:10:50.472Z,25.40
2023-02-23T05:13:22.514Z,28.77
2023-02-23T05:15:50.291Z,25.80
2023-02-23T05:18:18.063Z,27.50
2023-02-23T05:20:47.737Z,27.53
2023-02-23T05:23:15.635Z,24.70
2023-02-23T05:25:45.579Z,27.60
2023-02-23T05:28:15.833Z,28.50
2023-02-23T05:30:43.746Z,25.03
2023-02-23T05:33:14.613Z,18.30
2023-02-23T05:35:42.854Z,21.30
2023-02-23T05:38:12.036Z,24.53
2023-02-23T05:40:42.426Z,25.93
2023-02-23T05:43:10.304Z,20.87
2023-02-23T05:45:41.039Z,16.70
2023-02-23T05:48:08.887Z,16.07
2023-02-23T05:50:36.943Z,20.60
2023-02-23T05:53:05.129Z,22.43
2023-02-23T05:55:34.296Z,21.00
2023-02-23T05:58:04.205Z,16.27
2023-02-23T06:00:34.918Z,21.67
2023-02-23T06:03:02.741Z,18.30
2023-02-23T06:05:30.653Z,15.53
2023-02-23T06:08:00.368Z,17.80
2023-02-23T06:10:28.187Z,22.70
2023-02-23T06:13:02.443Z,18.17
2023-02-23T06:15:30.169Z,17.87
2023-02-23T06:17:58.034Z,17.47
2023-02-23T06:20:26.110Z,19.20
2023-02-23T06:22:53.854Z,21.57
2023-02-23T06:25:24.056Z,19.63
2023-02-23T06:27:51.836Z,16.80
2023-02-23T06:30:24.912Z,16.90
2023-02-23T06:32:53.694Z,15.33
2023-02-23T06:35:21.434Z,15.93
2023-02-23T06:37:51.619Z,14.03
2023-02-23T06:40:19.586Z,13.70
2023-02-23T06:42:47.350Z,14.67
2023-02-23T06:45:15.162Z,15.20
2023-02-23T06:47:47.278Z,14.43
2023-02-23T06:50:18.065Z,19.93
2023-02-23T06:52:46.206Z,15.87
2023-02-23T06:55:14.536Z,18.50
2023-02-23T06:57:42.692Z,16.40
2023-02-23T07:00:13.592Z,14.50
2023-02-23T07:02:41.339Z,15.20
2023-02-23T07:05:11.214Z,18.27
2023-02-23T07:07:41.510Z,16.03
2023-02-23T07:10:12.651Z,12.50
2023-02-23T07:12:43.319Z,14.83
2023-02-23T07:15:11.780Z,14.33
2023-02-23T07:17:39.594Z,11.43
2023-02-23T07:20:07.760Z,12.00
2023-02-23T07:22:39.091Z,14.27
2023-02-23T07:25:08.732Z,16.67
2023-02-23T07:27:36.748Z,18.13
2023-02-23T07:30:05.117Z,15.97
2023-02-23T07:32:32.909Z,17.23
2023-02-23T07:35:00.804Z,16.70
2023-02-23T07:37:28.562Z,16.60
2023-02-23T07:39:59.522Z,16.97
2023-02-23T07:42:28.764Z,13.80
2023-02-23T07:44:56.473Z,14.07
2023-02-23T07:47:31.133Z,12.43
2023-02-23T07:50:03.662Z,11.97
2023-02-23T07:52:31.536Z,12.17
2023-02-23T07:55:00.747Z,13.80
2023-02-23T07:57:31.377Z,13.87
2023-02-23T08:00:01.191Z,14.70
2023-02-23T08:02:29.934Z,14.53
2023-02-23T08:04:57.667Z,14.63
2023-02-23T08:07:25.923Z,13.87
2023-02-23T08:09:53.797Z,14.50
2023-02-23T08:12:22.880Z,14.33
2023-02-23T08:14:50.608Z,12.93
2023-02-23T08:17:20.802Z,13.73
2023-02-23T08:19:50.785Z,14.90
2023-02-23T08:22:18.840Z,14.70
2023-02-23T08:24:46.648Z,14.07
2023-02-23T08:27:14.408Z,14.50
2023-02-23T08:29:43.566Z,14.37
2023-02-23T08:32:11.482Z,14.40
2023-02-23T08:34:42.046Z,13.83
2023-02-23T08:37:10.568Z,13.77
2023-02-23T08:39:38.760Z,15.37
2023-02-23T08:42:06.625Z,14.67
2023-02-23T08:44:34.462Z,14.77
2023-02-23T08:47:04.773Z,14.23
2023-02-23T08:49:33.534Z,15.83
2023-02-23T08:52:01.325Z,16.67
2023-02-23T08:54:29.075Z,15.50
2023-02-23T08:56:57.503Z,15.43
2023-02-23T08:59:25.747Z,15.23
2023-02-23T09:01:53.585Z,16.27
2023-02-23T09:04:22.744Z,15.73
2023-02-23T09:06:50.495Z,16.37
2023-02-23T09:09:18.375Z,15.23
2023-02-23T09:11:46.182Z,15.93
2023-02-23T09:14:14.071Z,15.33
2023-02-23T09:16:41.956Z,16.27
2023-02-23T09:19:10.929Z,17.30
2023-02-23T09:21:40.167Z,18.53
2023-02-23T09:24:10.906Z,18.13
2023-02-23T09:26:40.157Z,17.33
2023-02-23T09:29:08.676Z,17.03
2023-02-23T09:31:36.601Z,18.27
2023-02-23T09:34:04.506Z,18.93
2023-02-23T09:36:32.781Z,19.63
2023-02-23T09:39:03.008Z,19.00
2023-02-23T09:41:45.604Z,20.20
2023-02-23T09:44:18.180Z,18.77
2023-02-23T09:46:50.210Z,17.47
2023-02-23T09:49:19.223Z,18.17
2023-02-23T09:51:49.482Z,19.10
2023-02-23T09:54:19.757Z,19.07
2023-02-23T09:56:48.688Z,19.50
2023-02-23T09:59:23.241Z,17.97
2023-02-23T10:01:54.781Z,19.23
2023-02-23T10:04:24.319Z,17.57
2023-02-23T10:06:54.871Z,19.20
2023-02-23T10:09:27.808Z,17.37
2023-02-23T10:11:59.834Z,17.83
2023-02-23T10:14:36.496Z,18.17
2023-02-23T10:17:14.130Z,17.83
2023-02-23T10:19:48.546Z,17.73
2023-02-23T10:22:19.910Z,18.60
2023-02-23T10:24:52.414Z,17.63
2023-02-23T10:27:21.831Z,17.57
2023-02-23T10:29:51.554Z,18.70
2023-02-23T10:32:25.692Z,16.37
2023-02-23T10:34:54.752Z,17.17
2023-02-23T10:37:25.929Z,16.87
2023-02-23T10:39:55.168Z,16.77
2023-02-23T10:42:24.477Z,16.67
2023-02-23T10:44:52.219Z,16.00
2023-02-23T10:47:22.075Z,16.23
2023-02-23T10:49:51.178Z,15.50
2023-02-23T10:52:21.323Z,16.00
2023-02-23T10:54:50.291Z,16.67
2023-02-23T10:57:26.848Z,18.30
2023-02-23T11:00:02.200Z,17.33
2023-02-23T11:02:32.211Z,17.60
2023-02-23T11:05:00.924Z,17.30
2023-02-23T11:07:32.188Z,16.53
2023-02-23T11:10:01.718Z,15.23
2023-02-23T11:12:37.723Z,17.43
2023-02-23T11:15:24.716Z,17.17
2023-02-23T11:17:57.128Z,16.43
2023-02-23T11:20:27.661Z,13.90
2023-02-23T11:23:03.623Z,15.40
2023-02-23T11:25:38.818Z,14.43
2023-02-23T11:28:08.223Z,14.73
2023-02-23T11:30:38.257Z,13.87
2023-02-23T11:33:11.224Z,15.40
2023-02-23T11:35:39.940Z,15.53
2023-02-23T11:38:18.299Z,14.53
2023-02-23T11:40:58.915Z,14.67
2023-02-23T11:43:33.974Z,15.00
2023-02-23T11:46:02.916Z,14.70
2023-02-23T11:48:34.428Z,13.40
2023-02-23T11:51:02.619Z,13.57
2023-02-23T11:53:32.998Z,13.00
2023-02-23T11:56:02.824Z,13.53
2023-02-23T11:58:36.080Z,14.20
2023-02-23T12:01:12.201Z,14.07
2023-02-23T12:03:44.565Z,13.50
2023-02-23T12:06:12.654Z,12.10
2023-02-23T12:08:44.950Z,11.90
2023-02-23T12:11:14.659Z,12.00
2023-02-23T12:13:47.654Z,12.07
2023-02-23T12:16:22.926Z,12.13
2023-02-23T12:18:56.489Z,11.50
2023-02-23T12:21:32.138Z,11.60
2023-02-23T12:24:05.227Z,10.20
2023-02-23T12:26:35.205Z,10.47
2023-02-23T12:29:06.798Z,9.70
2023-02-23T12:31:40.511Z,8.90
2023-02-23T12:34:12.432Z,8.80
2023-02-23T12:36:42.785Z,7.10
2023-02-23T12:39:17.958Z,5.40
2023-02-23T12:41:47.226Z,4.93
2023-02-23T12:44:21.849Z,4.70
2023-02-23T12:46:52.084Z,4.20
2023-02-23T12:49:25.468Z,3.80
2023-02-23T12:51:55.813Z,3.40
2023-02-23T12:54:23.926Z,3.10
2023-02-23T12:56:55.208Z,3.20
2023-02-23T12:59:43.717Z,2.80
2023-02-23T13:02:16.594Z,2.60
2023-02-23T13:04:54.301Z,2.50
2023-02-23T13:07:26.002Z,2.10
2023-02-23T13:10:02.108Z,2.17
2023-02-23T13:12:41.351Z,1.90
2023-02-23T13:15:19.897Z,2.03
2023-02-23T13:17:53.687Z,2.10
2023-02-23T13:20:25.613Z,2.00
2023-02-23T13:22:56.426Z,2.00
2023-02-23T13:25:30.443Z,1.70
2023-02-23T13:28:00.041Z,1.80
2023-02-23T13:30:28.024Z,1.80
2023-02-23T13:32:58.296Z,1.87
2023-02-23T13:35:26.683Z,1.80
2023-02-23T13:37:56.726Z,1.90
2023-02-23T13:40:29.334Z,1.63
2023-02-23T13:43:01.737Z,1.80
2023-02-23T13:45:37.776Z,1.90
2023-02-23T13:48:14.040Z,1.90
2023-02-23T13:50:46.807Z,1.90
2023-02-23T13:53:29.222Z,1.70
2023-02-23T13:56:03.961Z,1.80
2023-02-23T13:58:34.714Z,1.70
2023-02-23T14:01:13.028Z,1.80
2023-02-23T14:03:48.232Z,1.80
2023-02-23T14:06:17.121Z,1.67
2023-02-23T14:08:46.302Z,1.70
2023-02-23T14:11:29.538Z,1.70
2023-02-23T14:14:01.299Z,1.80
2023-02-23T14:16:29.176Z,1.50
2023-02-23T14:19:06.144Z,1.80
2023-02-23T14:21:35.894Z,2.00
2023-02-23T14:24:08.531Z,2.00
2023-02-23T14:26:41.022Z,1.93
2023-02-23T14:29:18.560Z,2.00
2023-02-23T14:31:54.687Z,2.00
2023-02-23T14:34:24.173Z,2.00
2023-02-23T14:36:56.711Z,2.30
2023-02-23T14:39:26.156Z,2.00
2023-02-23T14:41:55.304Z,1.87
2023-02-23T14:44:30.905Z,2.00
2023-02-23T14:47:01.993Z,2.00
2023-02-23T14:49:37.750Z,1.90
2023-02-23T14:52:09.951Z,2.30
2023-02-23T14:54:38.623Z,2.40
2023-02-23T14:57:07.334Z,2.40
2023-02-23T14:59:39.592Z,2.30
2023-02-23T15:02:11.445Z,2.20
2023-02-23T15:04:42.153Z,2.30
2023-02-23T15:07:18.877Z,2.10
2023-02-23T15:09:47.771Z,2.10
2023-02-23T15:12:17.933Z,1.90
2023-02-23T15:14:47.024Z,2.00
2023-02-23T15:17:17.138Z,1.90
2023-02-23T15:19:47.162Z,1.70
2023-02-23T15:22:21.504Z,2.00
2023-02-23T15:24:50.468Z,1.80
2023-02-23T15:27:19.288Z,1.90
2023-02-23T15:29:47.065Z,1.80
2023-02-23T15:32:19.043Z,1.90
2023-02-23T15:34:51.575Z,2.00
2023-02-23T15:37:26.354Z,1.90
2023-02-23T15:40:00.140Z,2.00
2023-02-23T15:42:31.253Z,2.00
2023-02-23T15:45:00.397Z,2.00
2023-02-23T15:47:30.263Z,1.93
2023-02-23T15:50:07.545Z,1.93
2023-02-23T15:52:35.525Z,1.83
2023-02-23T15:55:06.634Z,2.00
2023-02-23T15:57:37.051Z,1.93
2023-02-23T16:00:19.830Z,2.10
2023-02-23T16:02:48.948Z,2.00
2023-02-23T16:05:22.219Z,2.00
2023-02-23T16:07:50.383Z,1.90
2023-02-23T16:10:22.895Z,2.00
2023-02-23T16:12:54.111Z,1.90
2023-02-23T16:15:24.731Z,1.80
2023-02-23T16:17:57.800Z,1.80
2023-02-23T16:20:31.449Z,1.90
2023-02-23T16:22:59.755Z,1.73
2023-02-23T16:25:28.806Z,1.80
2023-02-23T16:27:59.603Z,2.00
2023-02-23T16:30:37.145Z,1.90
2023-02-23T16:33:08.558Z,2.00
2023-02-23T16:35:41.078Z,2.10
2023-02-23T16:38:13.336Z,1.97
2023-02-23T16:40:41.129Z,1.90
2023-02-23T16:43:09.785Z,2.10
2023-02-23T16:45:38.518Z,1.97
2023-02-23T16:48:11.571Z,2.07
2023-02-23T16:50:41.835Z,1.90
2023-02-23T16:53:11.206Z,2.00
2023-02-23T16:55:40.585Z,2.00
2023-02-23T16:58:10.397Z,1.80
2023-02-23T17:00:38.239Z,1.80
2023-02-23T17:03:13.607Z,1.80
2023-02-23T17:05:45.365Z,1.70
2023-02-23T17:08:13.152Z,1.90
2023-02-23T17:10:42.167Z,1.50
2023-02-23T17:13:17.375Z,1.90
2023-02-23T17:15:48.137Z,2.00
2023-02-23T17:18:15.998Z,1.80
2023-02-23T17:20:45.532Z,2.00
2023-02-23T17:23:13.319Z,2.10
2023-02-23T17:25:43.305Z,1.60
2023-02-23T17:28:11.638Z,1.73
2023-02-23T17:30:41.616Z,1.90
2023-02-23T17:33:10.424Z,1.73
2023-02-23T17:35:39.893Z,1.90
2023-02-23T17:38:09.292Z,1.90
2023-02-23T17:40:38.078Z,2.00
2023-02-23T17:43:06.748Z,2.00
2023-02-23T17:45:34.577Z,1.70
2023-02-23T17:48:02.783Z,1.70
2023-02-23T17:50:30.851Z,1.60
2023-02-23T17:52:58.888Z,1.70
2023-02-23T17:55:28.049Z,1.77
2023-02-23T17:57:56.098Z,1.90
2023-02-23T18:00:25.139Z,1.80
2023-02-23T18:02:53.489Z,1.67
2023-02-23T18:05:21.828Z,1.80
2023-02-23T18:07:49.549Z,1.70
2023-02-23T18:10:17.597Z,1.50
2023-02-23T18:12:47.177Z,1.60
2023-02-23T18:15:15.015Z,1.87
2023-02-23T18:17:42.940Z,1.70
2023-02-23T18:20:14.125Z,1.60
2023-02-23T18:22:42.254Z,1.70
2023-02-23T18:25:10.986Z,1.67
2023-02-23T18:27:38.750Z,1.60
2023-02-23T18:30:09.185Z,1.80
2023-02-23T18:32:37.274Z,1.80
2023-02-23T18:35:05.755Z,1.70
2023-02-23T18:37:33.546Z,1.80
2023-02-23T18:40:04.912Z,1.80
2023-02-23T18:42:34.682Z,1.80
2023-02-23T18:45:02.425Z,1.80
2023-02-23T18:47:31.632Z,1.90
2023-02-23T18:50:01.752Z,1.90
2023-02-23T18:52:29.609Z,1.90
2023-02-23T18:54:57.431Z,1.67
2023-02-23T18:57:26.113Z,2.00
2023-02-23T18:59:54.214Z,1.80
2023-02-23T19:02:25.499Z,1.80
2023-02-23T19:04:54.696Z,1.80
2023-02-23T19:07:22.470Z,1.70
2023-02-23T19:09:55.966Z,1.70
2023-02-23T19:12:23.666Z,1.67
2023-02-23T19:14:51.823Z,1.80
2023-02-23T19:17:19.752Z,1.70
2023-02-23T19:19:47.563Z,1.80
2023-02-23T19:22:16.762Z,1.70
2023-02-23T19:24:44.678Z,1.50
2023-02-23T19:27:12.488Z,1.80
2023-02-23T19:29:40.254Z,1.80
2023-02-23T19:32:08.853Z,1.70
2023-02-23T19:34:36.922Z,1.60
2023-02-23T19:37:04.626Z,1.60
2023-02-23T19:39:36.178Z,1.70
2023-02-23T19:42:04.202Z,1.80
2023-02-23T19:44:34.159Z,1.57
2023-02-23T19:47:01.974Z,1.60
2023-02-23T19:49:29.635Z,1.60
2023-02-23T19:51:57.929Z,1.80
2023-02-23T19:54:28.744Z,1.80
2023-02-23T19:56:58.031Z,1.73
2023-02-23T19:59:26.214Z,1.70
2023-02-23T20:01:54.082Z,1.80
2023-02-23T20:04:22.169Z,1.70
2023-02-23T20:06:53.725Z,1.70
2023-02-23T20:09:21.549Z,1.80
2023-02-23T20:11:49.429Z,1.90
2023-02-23T20:14:20.270Z,1.90
2023-02-23T20:16:49.650Z,1.60
2023-02-23T20:19:17.966Z,1.40
2023-02-23T20:21:45.708Z,1.50
2023-02-23T20:24:13.996Z,1.80
2023-02-23T20:26:41.708Z,1.63
2023-02-23T20:29:12.247Z,1.83
2023-02-23T20:31:43.132Z,1.80
2023-02-23T20:34:12.120Z,1.80
2023-02-23T20:36:40.161Z,1.67
2023-02-23T20:39:08.846Z,1.60
2023-02-23T20:41:36.515Z,1.50
2023-02-23T20:44:07.405Z,1.70
2023-02-23T20:46:37.431Z,1.50
2023-02-23T20:49:10.669Z,1.50
2023-02-23T20:51:39.142Z,1.60
2023-02-23T20:54:08.055Z,1.60
2023-02-23T20:56:35.911Z,1.60
2023-02-23T20:59:04.170Z,1.50
2023-02-23T21:01:35.105Z,1.70
2023-02-23T21:04:05.680Z,1.70
2023-02-23T21:06:37.998Z,1.70
2023-02-23T21:09:07.049Z,1.60
2023-02-23T21:11:34.797Z,1.60
2023-02-23T21:14:02.549Z,1.50
2023-02-23T21:16:32.449Z,1.47
2023-02-23T21:19:06.887Z,1.60
2023-02-23T21:21:40.837Z,1.60
2023-02-23T21:24:09.025Z,1.60
2023-02-23T21:26:36.946Z,1.60
2023-02-23T21:29:08.389Z,1.50
2023-02-23T21:31:37.215Z,1.60
2023-02-23T21:34:06.589Z,1.50
2023-02-23T21:36:34.612Z,1.60
2023-02-23T21:39:04.750Z,1.70
2023-02-23T21:41:35.896Z,1.70
2023-02-23T21:44:08.102Z,1.60
2023-02-23T21:46:36.119Z,1.70
2023-02-23T21:49:07.350Z,1.70
2023-02-23T21:51:36.330Z,1.50
2023-02-23T21:54:05.859Z,1.60
2023-02-23T21:56:36.977Z,1.60
2023-02-23T21:59:05.871Z,1.60
2023-02-23T22:01:34.769Z,1.60
2023-02-23T22:04:02.574Z,1.70
2023-02-23T22:06:31.321Z,1.60
2023-02-23T22:08:59.835Z,1.70
2023-02-23T22:11:29.593Z,1.60
2023-02-23T22:13:59.139Z,1.90
2023-02-23T22:16:28.165Z,1.70
2023-02-23T22:18:55.998Z,1.70
2023-02-23T22:21:23.860Z,1.50
2023-02-23T22:23:53.474Z,1.60
2023-02-23T22:26:21.618Z,1.70
2023-02-23T22:28:53.794Z,1.60
2023-02-23T22:31:22.140Z,1.60
2023-02-23T22:33:50.850Z,1.70
2023-02-23T22:36:21.790Z,1.73
2023-02-23T22:38:50.119Z,1.70
2023-02-23T22:41:20.080Z,1.70
2023-02-23T22:43:53.149Z,1.60
2023-02-23T22:46:23.138Z,1.70
2023-02-23T22:48:51.169Z,1.70
2023-02-23T22:51:52.886Z,1.70
2023-02-23T22:54:26.737Z,1.80
2023-02-23T22:56:54.936Z,1.70
2023-02-23T22:59:22.786Z,1.70
2023-02-23T23:01:56.506Z,1.70
2023-02-23T23:04:31.082Z,1.90
2023-02-23T23:06:59.133Z,1.90
2023-02-23T23:09:28.348Z,1.80
2023-02-23T23:11:56.790Z,1.90
2023-02-23T23:14:27.606Z,1.90
2023-02-23T23:16:58.472Z,1.70
2023-02-23T23:19:29.257Z,2.00
2023-02-23T23:21:57.982Z,1.80
2023-02-23T23:24:26.221Z,1.80
2023-02-23T23:27:00.481Z,1.90
2023-02-23T23:29:29.723Z,1.97
2023-02-23T23:31:58.995Z,1.90
2023-02-23T23:34:26.927Z,1.80
2023-02-23T23:36:57.338Z,1.90
2023-02-23T23:39:26.098Z,1.93
2023-02-23T23:41:55.642Z,2.20
2023-02-23T23:44:24.492Z,2.30
2023-02-23T23:46:53.164Z,2.00
2023-02-23T23:49:25.692Z,1.90
2023-02-23T23:51:57.016Z,2.10
2023-02-23T23:54:26.266Z,2.00
2023-02-23T23:56:54.370Z,1.87
2023-02-23T23:59:23.003Z,2.10
